sensor_id;sensor_type;location;lat;lon;timestamp;P1;durP1;ratioP1;P2;durP2;ratioP2
20144;SDS011;10233;50.814;6.590;2023-06-14T00:00:43;7.95;;;5.40;;
20144;SDS011;10233;50.814;6.590;2023-06-14T00:01:44;7.45;;;5.53;;
20144;SDS011;10233;50.814;6.590;2023-06-14T00:02:48;7.68;;;5.30;;
20144;SDS011;10233;50.814;6.590;2023-06-14T00:03:49;7.87;;;5.77;;
20144;SDS011;10233;50.814;6.590;2023-06-14T00:04:49;7.70;;;6.00;;
20144;SDS011;10233;50.814;6.590;2023-06-14T00:05:52;9.07;;;6.03;;
20144;SDS011;10233;50.814;6.590;2023-06-14T00:06:53;9.30;;;5.75;;
20144;SDS011;10233;50.814;6.590;2023-06-14T00:07:53;7.73;;;5.83;;
20144;SDS011;10233;50.814;6.590;2023-06-14T00:08:54;8.32;;;5.80;;
20144;SDS011;10233;50.814;6.590;2023-06-14T00:09:54;7.97;;;5.60;;
20144;SDS011;10233;50.814;6.590;2023-06-14T00:10:55;5.80;;;5.20;;
20144;SDS011;10233;50.814;6.590;2023-06-14T00:11:55;7.35;;;5.32;;
20144;SDS011;10233;50.814;6.590;2023-06-14T00:12:57;8.10;;;5.70;;
20144;SDS011;10233;50.814;6.590;2023-06-14T00:13:59;7.65;;;5.60;;
20144;SDS011;10233;50.814;6.590;2023-06-14T00:15:00;6.35;;;5.38;;
20144;SDS011;10233;50.814;6.590;2023-06-14T00:16:03;8.35;;;5.70;;
20144;SDS011;10233;50.814;6.590;2023-06-14T00:17:04;9.00;;;6.07;;
20144;SDS011;10233;50.814;6.590;2023-06-14T00:18:04;6.32;;;5.25;;
20144;SDS011;10233;50.814;6.590;2023-06-14T00:19:05;7.28;;;5.65;;
20144;SDS011;10233;50.814;6.590;2023-06-14T00:20:06;6.97;;;6.03;;
20144;SDS011;10233;50.814;6.590;2023-06-14T00:21:06;6.70;;;5.28;;
20144;SDS011;10233;50.814;6.590;2023-06-14T00:22:07;7.40;;;5.10;;
20144;SDS011;10233;50.814;6.590;2023-06-14T00:23:07;8.77;;;5.47;;
20144;SDS011;10233;50.814;6.590;2023-06-14T00:24:08;8.38;;;6.15;;
20144;SDS011;10233;50.814;6.590;2023-06-14T00:25:08;6.90;;;5.30;;
20144;SDS011;10233;50.814;6.590;2023-06-14T00:26:09;8.00;;;5.85;;
20144;SDS011;10233;50.814;6.590;2023-06-14T00:27:12;8.55;;;5.72;;
20144;SDS011;10233;50.814;6.590;2023-06-14T00:28:13;8.50;;;5.50;;
20144;SDS011;10233;50.814;6.590;2023-06-14T00:29:13;6.68;;;5.75;;
20144;SDS011;10233;50.814;6.590;2023-06-14T00:30:14;9.10;;;6.40;;
20144;SDS011;10233;50.814;6.590;2023-06-14T00:31:15;8.80;;;6.28;;
20144;SDS011;10233;50.814;6.590;2023-06-14T00:32:15;8.13;;;5.97;;
20144;SDS011;10233;50.814;6.590;2023-06-14T00:33:16;7.40;;;6.10;;
20144;SDS011;10233;50.814;6.590;2023-06-14T00:34:17;9.00;;;6.18;;
20144;SDS011;10233;50.814;6.590;2023-06-14T00:35:18;8.40;;;5.83;;
20144;SDS011;10233;50.814;6.590;2023-06-14T00:36:18;7.33;;;6.10;;
20144;SDS011;10233;50.814;6.590;2023-06-14T00:37:19;11.48;;;6.30;;
20144;SDS011;10233;50.814;6.590;2023-06-14T00:38:19;6.87;;;5.60;;
20144;SDS011;10233;50.814;6.590;2023-06-14T00:39:21;7.47;;;5.90;;
20144;SDS011;10233;50.814;6.590;2023-06-14T00:40:21;7.53;;;5.70;;
20144;SDS011;10233;50.814;6.590;2023-06-14T00:41:22;8.07;;;5.97;;
20144;SDS011;10233;50.814;6.590;2023-06-14T00:42:23;6.78;;;5.60;;
20144;SDS011;10233;50.814;6.590;2023-06-14T00:43:25;8.15;;;6.25;;
20144;SDS011;10233;50.814;6.590;2023-06-14T00:44:25;7.20;;;5.53;;
20144;SDS011;10233;50.814;6.590;2023-06-14T00:45:26;7.47;;;5.57;;
20144;SDS011;10233;50.814;6.590;2023-06-14T00:46:26;8.73;;;5.77;;
20144;SDS011;10233;50.814;6.590;2023-06-14T00:47:28;7.03;;;5.78;;
20144;SDS011;10233;50.814;6.590;2023-06-14T00:48:29;6.90;;;6.00;;
20144;SDS011;10233;50.814;6.590;2023-06-14T00:49:30;8.95;;;6.28;;
20144;SDS011;10233;50.814;6.590;2023-06-14T00:50:31;7.15;;;5.68;;
20144;SDS011;10233;50.814;6.590;2023-06-14T00:51:33;7.55;;;6.30;;
20144;SDS011;10233;50.814;6.590;2023-06-14T00:52:34;7.50;;;6.22;;
20144;SDS011;10233;50.814;6.590;2023-06-14T00:53:34;7.22;;;5.88;;
20144;SDS011;10233;50.814;6.590;2023-06-14T00:54:35;7.82;;;5.60;;
20144;SDS011;10233;50.814;6.590;2023-06-14T00:55:38;8.13;;;5.97;;
20144;SDS011;10233;50.814;6.590;2023-06-14T00:56:38;9.38;;;6.03;;
20144;SDS011;10233;50.814;6.590;2023-06-14T00:57:39;8.82;;;6.43;;
20144;SDS011;10233;50.814;6.590;2023-06-14T00:58:40;9.17;;;5.87;;
20144;SDS011;10233;50.814;6.590;2023-06-14T00:59:42;8.82;;;5.97;;
20144;SDS011;10233;50.814;6.590;2023-06-14T01:00:47;7.72;;;5.80;;
20144;SDS011;10233;50.814;6.590;2023-06-14T01:01:48;7.22;;;5.95;;
20144;SDS011;10233;50.814;6.590;2023-06-14T01:02:49;7.45;;;5.55;;
20144;SDS011;10233;50.814;6.590;2023-06-14T01:03:52;8.32;;;5.80;;
20144;SDS011;10233;50.814;6.590;2023-06-14T01:04:53;7.65;;;5.57;;
20144;SDS011;10233;50.814;6.590;2023-06-14T01:11:12;8.57;;;5.90;;
20144;SDS011;10233;50.814;6.590;2023-06-14T01:14:56;8.13;;;5.60;;
20144;SDS011;10233;50.814;6.590;2023-06-14T01:15:57;8.27;;;5.50;;
20144;SDS011;10233;50.814;6.590;2023-06-14T01:16:59;9.23;;;5.50;;
20144;SDS011;10233;50.814;6.590;2023-06-14T01:18:00;7.63;;;5.82;;
20144;SDS011;10233;50.814;6.590;2023-06-14T01:19:05;6.85;;;6.10;;
20144;SDS011;10233;50.814;6.590;2023-06-14T01:20:12;6.53;;;5.70;;
20144;SDS011;10233;50.814;6.590;2023-06-14T01:21:23;9.00;;;6.00;;
20144;SDS011;10233;50.814;6.590;2023-06-14T01:22:25;8.18;;;6.38;;
20144;SDS011;10233;50.814;6.590;2023-06-14T01:23:29;8.63;;;5.70;;
20144;SDS011;10233;50.814;6.590;2023-06-14T01:24:33;5.95;;;5.35;;
20144;SDS011;10233;50.814;6.590;2023-06-14T01:25:34;8.90;;;5.72;;
20144;SDS011;10233;50.814;6.590;2023-06-14T01:26:37;10.00;;;6.20;;
20144;SDS011;10233;50.814;6.590;2023-06-14T01:27:38;7.88;;;6.00;;
20144;SDS011;10233;50.814;6.590;2023-06-14T01:28:39;8.07;;;6.37;;
20144;SDS011;10233;50.814;6.590;2023-06-14T01:29:39;8.48;;;6.07;;
20144;SDS011;10233;50.814;6.590;2023-06-14T01:30:50;7.10;;;6.32;;
20144;SDS011;10233;50.814;6.590;2023-06-14T01:31:55;8.55;;;6.20;;
20144;SDS011;10233;50.814;6.590;2023-06-14T01:32:55;9.45;;;6.40;;
20144;SDS011;10233;50.814;6.590;2023-06-14T01:33:57;7.40;;;6.40;;
20144;SDS011;10233;50.814;6.590;2023-06-14T01:34:58;9.00;;;6.20;;
20144;SDS011;10233;50.814;6.590;2023-06-14T01:36:02;8.57;;;6.43;;
20144;SDS011;10233;50.814;6.590;2023-06-14T01:37:05;8.73;;;6.40;;
20144;SDS011;10233;50.814;6.590;2023-06-14T01:38:06;7.75;;;6.30;;
20144;SDS011;10233;50.814;6.590;2023-06-14T01:39:08;7.75;;;5.65;;
20144;SDS011;10233;50.814;6.590;2023-06-14T01:40:10;9.55;;;6.22;;
20144;SDS011;10233;50.814;6.590;2023-06-14T01:41:12;7.32;;;5.82;;
20144;SDS011;10233;50.814;6.590;2023-06-14T01:42:15;7.70;;;5.95;;
20144;SDS011;10233;50.814;6.590;2023-06-14T01:43:16;8.00;;;5.97;;
20144;SDS011;10233;50.814;6.590;2023-06-14T01:44:18;6.63;;;5.80;;
20144;SDS011;10233;50.814;6.590;2023-06-14T01:45:20;8.38;;;5.78;;
20144;SDS011;10233;50.814;6.590;2023-06-14T01:46:23;7.47;;;5.50;;
20144;SDS011;10233;50.814;6.590;2023-06-14T01:47:24;8.00;;;6.07;;
20144;SDS011;10233;50.814;6.590;2023-06-14T01:48:25;8.52;;;6.35;;
20144;SDS011;10233;50.814;6.590;2023-06-14T01:49:26;7.50;;;6.10;;
20144;SDS011;10233;50.814;6.590;2023-06-14T01:50:30;8.80;;;6.00;;
20144;SDS011;10233;50.814;6.590;2023-06-14T01:51:31;8.23;;;6.13;;
20144;SDS011;10233;50.814;6.590;2023-06-14T01:52:32;8.32;;;6.45;;
20144;SDS011;10233;50.814;6.590;2023-06-14T01:53:32;8.90;;;6.47;;
20144;SDS011;10233;50.814;6.590;2023-06-14T01:54:33;8.50;;;6.40;;
20144;SDS011;10233;50.814;6.590;2023-06-14T01:55:33;7.40;;;5.95;;
20144;SDS011;10233;50.814;6.590;2023-06-14T01:56:40;8.18;;;6.32;;
20144;SDS011;10233;50.814;6.590;2023-06-14T01:57:44;7.85;;;6.25;;
20144;SDS011;10233;50.814;6.590;2023-06-14T01:58:44;8.32;;;6.85;;
20144;SDS011;10233;50.814;6.590;2023-06-14T01:59:45;11.48;;;7.38;;
20144;SDS011;10233;50.814;6.590;2023-06-14T02:00:48;10.52;;;7.47;;
20144;SDS011;10233;50.814;6.590;2023-06-14T02:01:49;9.05;;;7.30;;
20144;SDS011;10233;50.814;6.590;2023-06-14T02:02:49;11.43;;;7.27;;
20144;SDS011;10233;50.814;6.590;2023-06-14T02:03:50;8.88;;;6.63;;
20144;SDS011;10233;50.814;6.590;2023-06-14T02:04:51;9.75;;;6.90;;
20144;SDS011;10233;50.814;6.590;2023-06-14T02:05:52;7.87;;;6.40;;
20144;SDS011;10233;50.814;6.590;2023-06-14T02:06:52;9.90;;;7.40;;
20144;SDS011;10233;50.814;6.590;2023-06-14T02:07:53;8.57;;;6.50;;
20144;SDS011;10233;50.814;6.590;2023-06-14T02:08:53;9.93;;;6.68;;
20144;SDS011;10233;50.814;6.590;2023-06-14T02:09:54;9.82;;;6.80;;
20144;SDS011;10233;50.814;6.590;2023-06-14T02:10:56;8.87;;;7.03;;
20144;SDS011;10233;50.814;6.590;2023-06-14T02:11:57;10.52;;;7.07;;
20144;SDS011;10233;50.814;6.590;2023-06-14T02:12:58;8.83;;;6.67;;
20144;SDS011;10233;50.814;6.590;2023-06-14T02:14:00;8.63;;;7.03;;
20144;SDS011;10233;50.814;6.590;2023-06-14T02:15:01;7.80;;;6.70;;
20144;SDS011;10233;50.814;6.590;2023-06-14T02:16:03;13.27;;;7.07;;
20144;SDS011;10233;50.814;6.590;2023-06-14T02:17:04;11.27;;;6.90;;
20144;SDS011;10233;50.814;6.590;2023-06-14T02:18:06;8.68;;;6.72;;
20144;SDS011;10233;50.814;6.590;2023-06-14T02:19:07;9.03;;;6.50;;
20144;SDS011;10233;50.814;6.590;2023-06-14T02:20:10;9.27;;;6.90;;
20144;SDS011;10233;50.814;6.590;2023-06-14T02:21:11;9.45;;;6.82;;
20144;SDS011;10233;50.814;6.590;2023-06-14T02:22:12;9.07;;;7.07;;
20144;SDS011;10233;50.814;6.590;2023-06-14T02:23:15;8.75;;;6.80;;
20144;SDS011;10233;50.814;6.590;2023-06-14T02:24:15;10.07;;;7.00;;
20144;SDS011;10233;50.814;6.590;2023-06-14T02:25:15;10.75;;;7.35;;
20144;SDS011;10233;50.814;6.590;2023-06-14T02:26:16;8.57;;;6.80;;
20144;SDS011;10233;50.814;6.590;2023-06-14T02:27:16;8.60;;;6.97;;
20144;SDS011;10233;50.814;6.590;2023-06-14T02:28:18;9.52;;;7.30;;
20144;SDS011;10233;50.814;6.590;2023-06-14T02:29:18;9.23;;;7.35;;
20144;SDS011;10233;50.814;6.590;2023-06-14T02:30:19;9.23;;;6.97;;
20144;SDS011;10233;50.814;6.590;2023-06-14T02:31:19;9.38;;;6.68;;
20144;SDS011;10233;50.814;6.590;2023-06-14T02:32:22;10.02;;;7.40;;
20144;SDS011;10233;50.814;6.590;2023-06-14T02:33:23;9.87;;;6.90;;
20144;SDS011;10233;50.814;6.590;2023-06-14T02:34:26;8.82;;;6.90;;
20144;SDS011;10233;50.814;6.590;2023-06-14T02:35:27;7.53;;;6.30;;
20144;SDS011;10233;50.814;6.590;2023-06-14T02:36:29;7.10;;;6.32;;
20144;SDS011;10233;50.814;6.590;2023-06-14T02:37:30;8.85;;;6.40;;
20144;SDS011;10233;50.814;6.590;2023-06-14T02:38:31;8.87;;;6.70;;
20144;SDS011;10233;50.814;6.590;2023-06-14T02:39:32;8.30;;;6.60;;
20144;SDS011;10233;50.814;6.590;2023-06-14T02:40:32;7.82;;;6.40;;
20144;SDS011;10233;50.814;6.590;2023-06-14T02:41:32;11.82;;;7.35;;
20144;SDS011;10233;50.814;6.590;2023-06-14T02:42:33;10.83;;;7.07;;
20144;SDS011;10233;50.814;6.590;2023-06-14T02:43:33;8.90;;;6.88;;
20144;SDS011;10233;50.814;6.590;2023-06-14T02:44:34;7.97;;;6.40;;
20144;SDS011;10233;50.814;6.590;2023-06-14T02:45:36;8.57;;;6.60;;
20144;SDS011;10233;50.814;6.590;2023-06-14T02:46:36;9.50;;;7.00;;
20144;SDS011;10233;50.814;6.590;2023-06-14T02:47:36;8.20;;;6.73;;
20144;SDS011;10233;50.814;6.590;2023-06-14T02:48:37;9.05;;;6.75;;
20144;SDS011;10233;50.814;6.590;2023-06-14T02:49:37;8.60;;;7.20;;
20144;SDS011;10233;50.814;6.590;2023-06-14T02:50:38;7.60;;;6.53;;
20144;SDS011;10233;50.814;6.590;2023-06-14T02:51:38;8.73;;;6.93;;
20144;SDS011;10233;50.814;6.590;2023-06-14T02:52:39;9.30;;;6.70;;
20144;SDS011;10233;50.814;6.590;2023-06-14T02:53:42;8.10;;;6.53;;
20144;SDS011;10233;50.814;6.590;2023-06-14T02:54:44;7.72;;;6.43;;
20144;SDS011;10233;50.814;6.590;2023-06-14T02:55:47;8.43;;;6.82;;
20144;SDS011;10233;50.814;6.590;2023-06-14T02:56:48;8.68;;;6.85;;
20144;SDS011;10233;50.814;6.590;2023-06-14T02:57:50;9.87;;;7.00;;
20144;SDS011;10233;50.814;6.590;2023-06-14T02:58:51;8.43;;;6.85;;
20144;SDS011;10233;50.814;6.590;2023-06-14T02:59:53;9.05;;;7.07;;
20144;SDS011;10233;50.814;6.590;2023-06-14T03:00:54;9.33;;;7.07;;
20144;SDS011;10233;50.814;6.590;2023-06-14T03:01:55;8.45;;;6.53;;
20144;SDS011;10233;50.814;6.590;2023-06-14T03:02:55;9.13;;;6.93;;
20144;SDS011;10233;50.814;6.590;2023-06-14T03:03:56;10.10;;;7.60;;
20144;SDS011;10233;50.814;6.590;2023-06-14T03:04:56;8.80;;;7.20;;
20144;SDS011;10233;50.814;6.590;2023-06-14T03:06:02;8.20;;;6.72;;
20144;SDS011;10233;50.814;6.590;2023-06-14T03:07:06;11.10;;;7.47;;
20144;SDS011;10233;50.814;6.590;2023-06-14T03:08:12;8.90;;;7.47;;
20144;SDS011;10233;50.814;6.590;2023-06-14T03:09:17;8.70;;;7.05;;
20144;SDS011;10233;50.814;6.590;2023-06-14T03:10:19;8.85;;;7.45;;
20144;SDS011;10233;50.814;6.590;2023-06-14T03:11:21;9.18;;;7.32;;
20144;SDS011;10233;50.814;6.590;2023-06-14T03:12:23;10.52;;;7.95;;
20144;SDS011;10233;50.814;6.590;2023-06-14T03:13:24;9.35;;;7.47;;
20144;SDS011;10233;50.814;6.590;2023-06-14T03:14:27;9.23;;;7.13;;
20144;SDS011;10233;50.814;6.590;2023-06-14T03:15:29;9.68;;;7.47;;
20144;SDS011;10233;50.814;6.590;2023-06-14T03:16:31;12.07;;;7.45;;
20144;SDS011;10233;50.814;6.590;2023-06-14T03:17:33;11.13;;;6.90;;
20144;SDS011;10233;50.814;6.590;2023-06-14T03:18:37;8.63;;;7.13;;
20144;SDS011;10233;50.814;6.590;2023-06-14T03:19:39;8.98;;;6.93;;
20144;SDS011;10233;50.814;6.590;2023-06-14T03:20:41;10.05;;;7.60;;
20144;SDS011;10233;50.814;6.590;2023-06-14T03:21:43;10.20;;;7.40;;
20144;SDS011;10233;50.814;6.590;2023-06-14T03:22:44;9.52;;;7.43;;
20144;SDS011;10233;50.814;6.590;2023-06-14T03:23:47;8.45;;;7.03;;
20144;SDS011;10233;50.814;6.590;2023-06-14T03:24:48;8.52;;;7.05;;
20144;SDS011;10233;50.814;6.590;2023-06-14T03:25:49;10.07;;;7.15;;
20144;SDS011;10233;50.814;6.590;2023-06-14T03:26:49;10.53;;;7.50;;
20144;SDS011;10233;50.814;6.590;2023-06-14T03:27:50;10.02;;;6.90;;
20144;SDS011;10233;50.814;6.590;2023-06-14T03:28:52;9.05;;;7.18;;
20144;SDS011;10233;50.814;6.590;2023-06-14T03:29:54;8.30;;;6.70;;
20144;SDS011;10233;50.814;6.590;2023-06-14T03:30:54;10.43;;;7.13;;
20144;SDS011;10233;50.814;6.590;2023-06-14T03:31:59;9.73;;;7.32;;
20144;SDS011;10233;50.814;6.590;2023-06-14T03:33:08;11.38;;;7.45;;
20144;SDS011;10233;50.814;6.590;2023-06-14T03:34:12;9.13;;;6.72;;
20144;SDS011;10233;50.814;6.590;2023-06-14T03:35:13;9.57;;;7.05;;
20144;SDS011;10233;50.814;6.590;2023-06-14T03:36:17;8.88;;;7.22;;
20144;SDS011;10233;50.814;6.590;2023-06-14T03:37:18;10.30;;;7.20;;
20144;SDS011;10233;50.814;6.590;2023-06-14T03:38:21;7.93;;;6.88;;
20144;SDS011;10233;50.814;6.590;2023-06-14T03:39:21;10.85;;;7.28;;
20144;SDS011;10233;50.814;6.590;2023-06-14T03:40:23;10.52;;;6.82;;
20144;SDS011;10233;50.814;6.590;2023-06-14T03:41:29;10.02;;;6.85;;
20144;SDS011;10233;50.814;6.590;2023-06-14T03:42:30;9.05;;;7.30;;
20144;SDS011;10233;50.814;6.590;2023-06-14T03:43:30;10.37;;;7.73;;
20144;SDS011;10233;50.814;6.590;2023-06-14T03:44:31;10.25;;;7.07;;
20144;SDS011;10233;50.814;6.590;2023-06-14T03:45:31;8.73;;;7.00;;
20144;SDS011;10233;50.814;6.590;2023-06-14T03:46:33;9.30;;;7.25;;
20144;SDS011;10233;50.814;6.590;2023-06-14T03:47:34;8.80;;;7.07;;
20144;SDS011;10233;50.814;6.590;2023-06-14T03:48:35;9.40;;;7.05;;
20144;SDS011;10233;50.814;6.590;2023-06-14T03:49:36;8.82;;;6.85;;
20144;SDS011;10233;50.814;6.590;2023-06-14T03:50:37;8.23;;;6.80;;
20144;SDS011;10233;50.814;6.590;2023-06-14T03:51:39;9.05;;;6.80;;
20144;SDS011;10233;50.814;6.590;2023-06-14T03:52:41;8.77;;;6.70;;
20144;SDS011;10233;50.814;6.590;2023-06-14T03:53:44;10.18;;;6.90;;
20144;SDS011;10233;50.814;6.590;2023-06-14T03:54:45;8.07;;;6.60;;
20144;SDS011;10233;50.814;6.590;2023-06-14T03:55:47;10.25;;;7.13;;
20144;SDS011;10233;50.814;6.590;2023-06-14T03:56:49;10.10;;;6.90;;
20144;SDS011;10233;50.814;6.590;2023-06-14T03:57:49;8.48;;;6.65;;
20144;SDS011;10233;50.814;6.590;2023-06-14T03:58:51;8.68;;;6.75;;
20144;SDS011;10233;50.814;6.590;2023-06-14T03:59:54;8.13;;;6.78;;
20144;SDS011;10233;50.814;6.590;2023-06-14T04:00:56;9.50;;;6.90;;
20144;SDS011;10233;50.814;6.590;2023-06-14T04:01:58;8.70;;;6.47;;
20144;SDS011;10233;50.814;6.590;2023-06-14T04:02:58;10.02;;;7.28;;
20144;SDS011;10233;50.814;6.590;2023-06-14T04:03:59;8.90;;;6.90;;
20144;SDS011;10233;50.814;6.590;2023-06-14T04:05:00;10.43;;;7.57;;
20144;SDS011;10233;50.814;6.590;2023-06-14T04:06:01;9.33;;;7.10;;
20144;SDS011;10233;50.814;6.590;2023-06-14T04:07:02;9.57;;;6.85;;
20144;SDS011;10233;50.814;6.590;2023-06-14T04:08:05;9.27;;;7.05;;
20144;SDS011;10233;50.814;6.590;2023-06-14T04:09:09;8.18;;;6.75;;
20144;SDS011;10233;50.814;6.590;2023-06-14T04:10:09;10.23;;;7.17;;
20144;SDS011;10233;50.814;6.590;2023-06-14T04:11:11;10.05;;;7.05;;
20144;SDS011;10233;50.814;6.590;2023-06-14T04:12:12;10.00;;;7.22;;
20144;SDS011;10233;50.814;6.590;2023-06-14T04:13:13;9.90;;;7.10;;
20144;SDS011;10233;50.814;6.590;2023-06-14T04:14:13;12.70;;;7.27;;
20144;SDS011;10233;50.814;6.590;2023-06-14T04:15:14;10.40;;;7.45;;
20144;SDS011;10233;50.814;6.590;2023-06-14T04:16:15;8.90;;;7.47;;
20144;SDS011;10233;50.814;6.590;2023-06-14T04:17:17;9.50;;;7.05;;
20144;SDS011;10233;50.814;6.590;2023-06-14T04:18:19;9.98;;;7.45;;
20144;SDS011;10233;50.814;6.590;2023-06-14T04:19:20;11.20;;;7.10;;
20144;SDS011;10233;50.814;6.590;2023-06-14T04:20:21;9.60;;;7.50;;
20144;SDS011;10233;50.814;6.590;2023-06-14T04:21:22;10.60;;;7.40;;
20144;SDS011;10233;50.814;6.590;2023-06-14T04:22:28;9.95;;;6.93;;
20144;SDS011;10233;50.814;6.590;2023-06-14T04:23:30;8.05;;;6.82;;
20144;SDS011;10233;50.814;6.590;2023-06-14T04:24:34;9.55;;;6.72;;
20144;SDS011;10233;50.814;6.590;2023-06-14T04:25:35;9.60;;;7.15;;
20144;SDS011;10233;50.814;6.590;2023-06-14T04:26:37;9.95;;;6.55;;
20144;SDS011;10233;50.814;6.590;2023-06-14T04:27:37;8.23;;;7.17;;
20144;SDS011;10233;50.814;6.590;2023-06-14T04:28:39;8.85;;;6.65;;
20144;SDS011;10233;50.814;6.590;2023-06-14T04:29:41;9.45;;;6.93;;
20144;SDS011;10233;50.814;6.590;2023-06-14T04:30:46;11.07;;;7.95;;
20144;SDS011;10233;50.814;6.590;2023-06-14T04:31:48;8.52;;;7.05;;
20144;SDS011;10233;50.814;6.590;2023-06-14T04:32:49;10.18;;;7.32;;
20144;SDS011;10233;50.814;6.590;2023-06-14T04:33:53;8.93;;;6.97;;
20144;SDS011;10233;50.814;6.590;2023-06-14T04:34:56;10.02;;;7.00;;
20144;SDS011;10233;50.814;6.590;2023-06-14T04:35:59;8.20;;;6.82;;
20144;SDS011;10233;50.814;6.590;2023-06-14T04:37:00;9.23;;;6.88;;
20144;SDS011;10233;50.814;6.590;2023-06-14T04:38:10;9.70;;;6.97;;
20144;SDS011;10233;50.814;6.590;2023-06-14T04:39:12;8.77;;;7.07;;
20144;SDS011;10233;50.814;6.590;2023-06-14T04:40:13;9.18;;;7.03;;
20144;SDS011;10233;50.814;6.590;2023-06-14T04:41:14;10.77;;;7.18;;
20144;SDS011;10233;50.814;6.590;2023-06-14T04:42:17;12.60;;;7.30;;
20144;SDS011;10233;50.814;6.590;2023-06-14T04:43:21;11.35;;;7.00;;
20144;SDS011;10233;50.814;6.590;2023-06-14T04:44:29;11.43;;;7.55;;
20144;SDS011;10233;50.814;6.590;2023-06-14T04:45:33;9.63;;;7.38;;
20144;SDS011;10233;50.814;6.590;2023-06-14T04:46:34;10.30;;;7.03;;
20144;SDS011;10233;50.814;6.590;2023-06-14T04:47:48;15.38;;;7.55;;
20144;SDS011;10233;50.814;6.590;2023-06-14T04:48:49;10.38;;;7.65;;
20144;SDS011;10233;50.814;6.590;2023-06-14T04:49:50;9.50;;;6.85;;
20144;SDS011;10233;50.814;6.590;2023-06-14T04:50:54;10.38;;;6.95;;
20144;SDS011;10233;50.814;6.590;2023-06-14T04:51:55;9.55;;;6.80;;
20144;SDS011;10233;50.814;6.590;2023-06-14T04:53:02;9.60;;;6.80;;
20144;SDS011;10233;50.814;6.590;2023-06-14T04:54:03;10.23;;;7.13;;
20144;SDS011;10233;50.814;6.590;2023-06-14T04:55:05;9.38;;;7.55;;
20144;SDS011;10233;50.814;6.590;2023-06-14T04:56:06;10.40;;;7.18;;
20144;SDS011;10233;50.814;6.590;2023-06-14T04:57:08;10.75;;;8.05;;
20144;SDS011;10233;50.814;6.590;2023-06-14T04:58:16;12.25;;;7.78;;
20144;SDS011;10233;50.814;6.590;2023-06-14T04:59:16;10.30;;;8.05;;
20144;SDS011;10233;50.814;6.590;2023-06-14T05:00:17;10.43;;;8.57;;
20144;SDS011;10233;50.814;6.590;2023-06-14T05:01:18;11.60;;;7.80;;
20144;SDS011;10233;50.814;6.590;2023-06-14T05:02:20;10.70;;;7.60;;
20144;SDS011;10233;50.814;6.590;2023-06-14T05:03:22;10.98;;;7.80;;
20144;SDS011;10233;50.814;6.590;2023-06-14T05:04:23;12.85;;;7.97;;
20144;SDS011;10233;50.814;6.590;2023-06-14T05:05:26;10.05;;;7.45;;
20144;SDS011;10233;50.814;6.590;2023-06-14T05:06:26;11.37;;;7.60;;
20144;SDS011;10233;50.814;6.590;2023-06-14T05:07:27;10.95;;;7.25;;
20144;SDS011;10233;50.814;6.590;2023-06-14T05:08:28;10.65;;;7.70;;
20144;SDS011;10233;50.814;6.590;2023-06-14T05:09:29;11.68;;;7.47;;
20144;SDS011;10233;50.814;6.590;2023-06-14T05:10:30;10.20;;;7.00;;
20144;SDS011;10233;50.814;6.590;2023-06-14T05:11:30;11.25;;;7.78;;
20144;SDS011;10233;50.814;6.590;2023-06-14T05:12:31;8.50;;;6.90;;
20144;SDS011;10233;50.814;6.590;2023-06-14T05:13:32;11.00;;;7.18;;
20144;SDS011;10233;50.814;6.590;2023-06-14T05:14:36;9.82;;;7.68;;
20144;SDS011;10233;50.814;6.590;2023-06-14T05:15:38;12.00;;;7.88;;
20144;SDS011;10233;50.814;6.590;2023-06-14T05:16:38;9.80;;;7.47;;
20144;SDS011;10233;50.814;6.590;2023-06-14T05:17:40;9.90;;;7.55;;
20144;SDS011;10233;50.814;6.590;2023-06-14T05:18:41;9.43;;;7.15;;
20144;SDS011;10233;50.814;6.590;2023-06-14T05:19:41;9.77;;;7.45;;
20144;SDS011;10233;50.814;6.590;2023-06-14T05:20:42;9.07;;;7.20;;
20144;SDS011;10233;50.814;6.590;2023-06-14T05:21:42;9.55;;;6.88;;
20144;SDS011;10233;50.814;6.590;2023-06-14T05:22:43;9.80;;;7.13;;
20144;SDS011;10233;50.814;6.590;2023-06-14T05:23:46;9.07;;;6.70;;
20144;SDS011;10233;50.814;6.590;2023-06-14T05:24:47;9.65;;;6.78;;
20144;SDS011;10233;50.814;6.590;2023-06-14T05:25:48;8.85;;;6.70;;
20144;SDS011;10233;50.814;6.590;2023-06-14T05:26:48;8.60;;;7.03;;
20144;SDS011;10233;50.814;6.590;2023-06-14T05:27:49;9.63;;;7.00;;
20144;SDS011;10233;50.814;6.590;2023-06-14T05:28:49;8.95;;;7.07;;
20144;SDS011;10233;50.814;6.590;2023-06-14T05:29:50;9.07;;;6.97;;
20144;SDS011;10233;50.814;6.590;2023-06-14T05:30:51;8.93;;;7.13;;
20144;SDS011;10233;50.814;6.590;2023-06-14T05:31:51;9.75;;;7.07;;
20144;SDS011;10233;50.814;6.590;2023-06-14T05:32:52;9.02;;;7.20;;
20144;SDS011;10233;50.814;6.590;2023-06-14T05:33:53;8.35;;;6.72;;
20144;SDS011;10233;50.814;6.590;2023-06-14T05:34:54;9.77;;;6.70;;
20144;SDS011;10233;50.814;6.590;2023-06-14T05:35:54;9.03;;;6.77;;
20144;SDS011;10233;50.814;6.590;2023-06-14T05:36:55;9.63;;;6.68;;
20144;SDS011;10233;50.814;6.590;2023-06-14T05:37:56;8.43;;;6.32;;
20144;SDS011;10233;50.814;6.590;2023-06-14T05:38:56;8.30;;;6.75;;
20144;SDS011;10233;50.814;6.590;2023-06-14T05:40:00;10.10;;;6.70;;
20144;SDS011;10233;50.814;6.590;2023-06-14T05:41:01;8.57;;;6.37;;
20144;SDS011;10233;50.814;6.590;2023-06-14T05:42:02;11.10;;;6.85;;
20144;SDS011;10233;50.814;6.590;2023-06-14T05:43:02;10.80;;;6.97;;
20144;SDS011;10233;50.814;6.590;2023-06-14T05:44:03;9.55;;;6.78;;
20144;SDS011;10233;50.814;6.590;2023-06-14T05:45:03;10.33;;;6.77;;
20144;SDS011;10233;50.814;6.590;2023-06-14T05:46:06;8.48;;;7.05;;
20144;SDS011;10233;50.814;6.590;2023-06-14T05:47:06;8.70;;;6.30;;
20144;SDS011;10233;50.814;6.590;2023-06-14T05:48:07;7.43;;;6.10;;
20144;SDS011;10233;50.814;6.590;2023-06-14T05:49:07;9.33;;;7.07;;
20144;SDS011;10233;50.814;6.590;2023-06-14T05:50:08;8.80;;;6.60;;
20144;SDS011;10233;50.814;6.590;2023-06-14T05:51:09;8.43;;;6.35;;
20144;SDS011;10233;50.814;6.590;2023-06-14T05:52:09;11.60;;;6.30;;
20144;SDS011;10233;50.814;6.590;2023-06-14T05:53:11;8.45;;;5.90;;
20144;SDS011;10233;50.814;6.590;2023-06-14T05:54:12;8.93;;;5.80;;
20144;SDS011;10233;50.814;6.590;2023-06-14T05:55:12;11.85;;;5.93;;
20144;SDS011;10233;50.814;6.590;2023-06-14T05:56:13;7.33;;;5.30;;
20144;SDS011;10233;50.814;6.590;2023-06-14T05:57:15;6.80;;;5.22;;
20144;SDS011;10233;50.814;6.590;2023-06-14T05:58:15;9.53;;;5.20;;
20144;SDS011;10233;50.814;6.590;2023-06-14T05:59:15;7.50;;;5.27;;
20144;SDS011;10233;50.814;6.590;2023-06-14T06:00:16;7.18;;;4.90;;
20144;SDS011;10233;50.814;6.590;2023-06-14T06:01:17;6.47;;;5.03;;
20144;SDS011;10233;50.814;6.590;2023-06-14T06:02:18;7.20;;;5.20;;
20144;SDS011;10233;50.814;6.590;2023-06-14T06:03:18;9.05;;;4.70;;
20144;SDS011;10233;50.814;6.590;2023-06-14T06:04:19;6.37;;;5.00;;
20144;SDS011;10233;50.814;6.590;2023-06-14T06:05:20;9.05;;;4.93;;
20144;SDS011;10233;50.814;6.590;2023-06-14T06:06:20;8.23;;;4.73;;
20144;SDS011;10233;50.814;6.590;2023-06-14T06:07:21;6.28;;;4.50;;
20144;SDS011;10233;50.814;6.590;2023-06-14T06:08:22;6.77;;;4.47;;
20144;SDS011;10233;50.814;6.590;2023-06-14T06:09:22;5.78;;;4.53;;
20144;SDS011;10233;50.814;6.590;2023-06-14T06:10:23;6.10;;;4.43;;
20144;SDS011;10233;50.814;6.590;2023-06-14T06:11:23;6.00;;;4.47;;
20144;SDS011;10233;50.814;6.590;2023-06-14T06:12:24;6.15;;;4.57;;
20144;SDS011;10233;50.814;6.590;2023-06-14T06:13:24;8.50;;;4.60;;
20144;SDS011;10233;50.814;6.590;2023-06-14T06:14:25;8.32;;;4.50;;
20144;SDS011;10233;50.814;6.590;2023-06-14T06:15:25;6.97;;;4.27;;
20144;SDS011;10233;50.814;6.590;2023-06-14T06:16:26;7.50;;;4.03;;
20144;SDS011;10233;50.814;6.590;2023-06-14T06:17:26;6.82;;;3.90;;
20144;SDS011;10233;50.814;6.590;2023-06-14T06:18:27;6.13;;;4.07;;